• Join FlightAware (Why Join?)
  • Login
  • US Flag 
04:06AM EDT


 

Airport Tracker/Info


-or-


 

Live Flight TrackerFlight Track Log ✈ DAL268 ✈ 29-Sep-2013 ✈ KSFO - KJFK

Flight Track Log - Related Links

Times and Time Zones

All times are in EDT time to prevent confusion due to time zone crossing. See the DAL268 flight status page for this flight to view local times or setup timezone preferences in your user account.

Time Position Orientation Groundspeed Altitude Reporting Facility
EDT Latitude Longitude Course Direction KTS MPH feet Rate Location/Type
02:15PM 37.6160 -122.3810 North  Level FlightAware
02:17PM 37.7868 -122.1965 38° Northeast  Level FlightAware Approximate
02:18PM 37.8828 -122.1005 38° Northeast  Level FlightAware Approximate
02:19PM 37.9788 -122.0045 38° Northeast  Level FlightAware Approximate
02:20PM 38.0685 -121.9089 35° Northeast  Level FlightAware Approximate
02:21PM 38.1669 -121.8165 38° Northeast  Level FlightAware Approximate
02:23PM 37.7886 -122.1948 38° Northeast  Level FlightAware Approximate
02:26PM 37.8190 -122.1644 38° Northeast  Level FlightAware Approximate
02:27PM 37.9150 -122.0684 38° Northeast  Level FlightAware Approximate
02:29PM 37.7982 -122.1852 38° Northeast  Level FlightAware Approximate
02:30PM 37.8942 -122.0892 38° Northeast  Level FlightAware Approximate
02:33PM 37.8621 -122.1212 38° Northeast  Level FlightAware Approximate
02:33PM 37.6070 -122.3810 38° Northeast  Level FlightAware
02:35PM 37.6233 -122.3700 27° Northeast 161 185 240 Level FlightAware ADS-B
02:35PM 37.6290 -122.3660 29° Northeast 161 185 400 2,760 Climbing FlightAware ADS-B
02:35PM 37.6319 -122.3640 29° Northeast 163 188 600 2,520 Climbing FlightAware ADS-B
02:35PM 37.6379 -122.3580 38° Northeast 170 196 1,000 2,100 Climbing FlightAware ADS-B
02:35PM 37.6404 -122.3550 44° Northeast 176 203 1,100 1,560 Climbing FlightAware ADS-B
02:35PM 37.6461 -122.3460 51° Northeast 187 215 1,400 1,500 Climbing FlightAware ADS-B
02:35PM 37.6514 -122.3380 50° Northeast 199 229 1,600 1,200 Climbing FlightAware ADS-B
02:36PM 37.6613 -122.3240 48° Northeast 223 257 1,900 1,500 Climbing FlightAware ADS-B
02:36PM 37.6728 -122.3060 51° Northeast 243 280 2,400 2,040 Climbing FlightAware ADS-B
02:36PM 37.6847 -122.2880 50° Northeast 259 298 3,000 2,400 Climbing FlightAware ADS-B
02:36PM 37.6976 -122.2690 49° Northeast 269 310 3,700 2,700 Climbing FlightAware ADS-B
02:37PM 37.7119 -122.2480 49° Northeast 276 318 4,500 2,520 Climbing FlightAware ADS-B
02:37PM 37.7277 -122.2250 49° Northeast 293 337 5,200 2,640 Climbing FlightAware ADS-B
02:37PM 37.7455 -122.2050 42° Northeast 293 337 6,100 2,880 Climbing FlightAware ADS-B
02:38PM 37.7611 -122.1890 39° Northeast 298 343 6,800 2,880 Climbing FlightAware ADS-B
02:38PM 37.7815 -122.1690 38° Northeast 304 350 7,700 2,880 Climbing FlightAware ADS-B
02:38PM 37.7987 -122.1520 38° Northeast 309 356 8,400 2,760 Climbing FlightAware ADS-B
02:38PM 37.8182 -122.1340 36° Northeast 313 360 9,200 2,880 Climbing FlightAware ADS-B
02:38PM 37.8273 -122.1250 38° Northeast 315 362 9,600 2,760 Climbing FlightAware ADS-B
02:39PM 37.8329 -122.1190 40° Northeast 319 367 9,800 3,000 Climbing FlightAware ADS-B
02:39PM 37.8359 -122.1150 46° Northeast 321 369 10,000 3,000 Climbing FlightAware ADS-B
02:39PM 37.8405 -122.1070 54° Northeast 326 375 10,200 1,800 Climbing FlightAware ADS-B
02:39PM 37.8463 -122.0930 62° Northeast 337 388 10,400 1,200 Climbing FlightAware ADS-B
02:39PM 37.8595 -122.0330 74° East 369 425 11,000 1,260 Climbing FlightAware ADS-B
02:40PM 37.8726 -121.9670 76° East 398 458 11,700 1,620 Climbing FlightAware ADS-B
02:40PM 37.8894 -121.8830 76° East 410 472 12,800 1,860 Climbing FlightAware ADS-B
02:41PM 37.8957 -121.8620 69° East 419 482 13,100 2,220 Climbing FlightAware ADS-B
02:41PM 37.9154 -121.8190 60° Northeast 421 484 13,900 2,340 Climbing FlightAware ADS-B
02:41PM 37.9465 -121.7550 58° Northeast 428 493 15,100 2,220 Climbing FlightAware ADS-B
02:42PM 37.9774 -121.6890 59° Northeast 434 499 16,200 2,040 Climbing FlightAware ADS-B
02:42PM 38.0096 -121.6220 59° Northeast 441 507 17,200 1,860 Climbing FlightAware ADS-B
02:43PM 38.0420 -121.5530 59° Northeast 449 517 18,100 1,740 Climbing FlightAware ADS-B
02:43PM 38.0747 -121.4820 60° Northeast 456 525 19,000 1,560 Climbing FlightAware ADS-B
02:44PM 38.1088 -121.4090 59° Northeast 463 533 19,800 1,500 Climbing FlightAware ADS-B
02:45PM 38.1422 -121.3380 59° Northeast 469 540 20,600 1,680 Climbing FlightAware ADS-B
02:45PM 38.1794 -121.2580 59° Northeast 472 543 21,600 1,620 Climbing FlightAware ADS-B
02:46PM 38.2152 -121.1850 58° Northeast 476 548 22,400 1,440 Climbing FlightAware ADS-B
02:46PM 38.2512 -121.1100 59° Northeast 481 554 23,100 1,440 Climbing FlightAware ADS-B
02:47PM 38.2920 -121.0260 58° Northeast 486 559 24,000 1,440 Climbing FlightAware
02:47PM 38.3320 -120.9420 59° Northeast 490 564 24,800 1,200 Climbing FlightAware
02:48PM 38.3750 -120.8500 59° Northeast 496 571 25,500 1,200 Climbing FlightAware
02:48PM 38.4140 -120.7690 58° Northeast 502 578 26,200 1,260 Climbing FlightAware
02:49PM 38.4590 -120.6740 59° Northeast 506 582 27,000 1,200 Climbing FlightAware
02:50PM 38.4980 -120.5920 59° Northeast 512 589 27,600 1,140 Climbing FlightAware
02:50PM 38.5336 -120.5158 59° Northeast 514 592 28,200 1,440 Climbing FlightAware ADS-B (KAHC)
02:51PM 38.5883 -120.3995 59° Northeast 508 585 29,400 1,500 Climbing FlightAware ADS-B (KAHC)
02:51PM 38.6260 -120.3200 59° Northeast 504 580 30,200 1,560 Climbing FlightAware
02:51PM 38.6287 -120.3132 63° Northeast 504 580 30,300 1,440 Climbing FlightAware ADS-B (KAHC)
02:52PM 38.6658 -120.2339 59° Northeast 504 580 31,000 660 Climbing FlightAware ADS-B (KAHC)
02:52PM 38.7010 -120.1586 59° Northeast 506 582 31,000  Level FlightAware ADS-B (KAHC)
02:53PM 38.7436 -120.0671 59° Northeast 500 575 31,000  Level FlightAware ADS-B (KAHC)
02:54PM 38.7827 -119.9828 59° Northeast 495 570 31,000  Level FlightAware ADS-B (KAHC)
02:54PM 38.8313 -119.8777 59° Northeast 498 573 31,000  Level FlightAware ADS-B (KAHC)
02:55PM 38.8705 -119.7927 59° Northeast 500 575 31,000  Level FlightAware ADS-B (KAHC)
02:55PM 38.9159 -119.6941 59° Northeast 500 575 31,000  Level FlightAware ADS-B (KAHC)
02:56PM 38.9485 -119.6229 59° Northeast 501 577 31,000  Level FlightAware ADS-B (KAHC)
02:57PM 39.0040 -119.5017 59° Northeast 501 577 31,000  Level FlightAware ADS-B (KAHC)
02:57PM 39.0408 -119.4210 60° Northeast 504 580 31,000  Level FlightAware ADS-B (KAHC)
02:58PM 39.0924 -119.3074 60° Northeast 506 582 31,000  Level FlightAware ADS-B (KAHC)
02:58PM 39.1282 -119.2283 60° Northeast 509 586 31,000  Level FlightAware ADS-B (KAHC)
02:59PM 39.1637 -119.1495 60° Northeast 506 582 31,000  Level FlightAware ADS-B (KAHC)
03:00PM 39.2091 -119.0489 60° Northeast 510 587 31,000  Level FlightAware ADS-B (KAHC)
03:00PM 39.2436 -118.9720 60° Northeast 509 586 31,000  Level FlightAware ADS-B (KAHC)
03:01PM 39.2818 -118.8868 60° Northeast 513 590 31,000  Level FlightAware ADS-B (KAHC)
03:01PM 39.3395 -118.7576 60° Northeast 516 594 31,000  Level FlightAware ADS-B (KAHC)
03:02PM 39.3815 -118.6633 60° Northeast 516 594 31,000  Level FlightAware ADS-B (KAHC)
03:03PM 39.4169 -118.5838 60° Northeast 518 596 31,000  Level FlightAware ADS-B (KAHC)
03:03PM 39.4640 -118.4770 60° Northeast 517 595 31,000  Level FlightAware
03:04PM 39.4990 -118.3970 60° Northeast 518 596 31,000  Level FlightAware
03:04PM 39.5420 -118.3000 60° Northeast 518 596 31,000  Level FlightAware
03:05PM 39.5860 -118.2000 60° Northeast 517 595 31,000  Level FlightAware
03:05PM 39.6260 -118.1080 61° Northeast 519 597 31,000  Level FlightAware
03:06PM 39.6640 -118.0210 60° Northeast 517 595 31,000  Level FlightAware
03:07PM 39.7050 -117.9260 61° Northeast 517 595 31,000  Level FlightAware
03:07PM 39.7480 -117.8270 61° Northeast 520 598 31,000  Level FlightAware
03:08PM 39.8010 -117.7060 60° Northeast 517 595 31,000  Level FlightAware
03:09PM 39.8380 -117.6230 60° Northeast 517 595 31,000  Level FlightAware
03:09PM 39.8740 -117.5410 60° Northeast 517 595 31,000  Level FlightAware
03:10PM 39.9100 -117.4600 60° Northeast 517 595 31,000  Level FlightAware
03:10PM 39.9490 -117.3730 60° Northeast 517 595 31,000  Level FlightAware
03:11PM 39.9890 -117.2810 60° Northeast 517 595 31,000  Level FlightAware
03:12PM 40.0260 -117.1980 60° Northeast 517 595 31,000  Level FlightAware
03:12PM 40.0620 -117.1160 60° Northeast 517 595 31,000  Level FlightAware
03:13PM 40.0990 -117.0330 60° Northeast 517 595 31,000  Level FlightAware
03:14PM 40.1360 -116.9500 60° Northeast 517 595 31,000  Level FlightAware
03:14PM 40.1720 -116.8670 60° Northeast 517 595 31,000  Level FlightAware
03:15PM 40.2090 -116.7840 60° Northeast 517 595 31,000  Level FlightAware
03:15PM 40.2460 -116.6990 60° Northeast 517 595 31,000  Level FlightAware
03:16PM 40.2810 -116.6200 60° Northeast 517 595 31,000  Level FlightAware
03:17PM 40.3170 -116.5370 60° Northeast 517 595 31,000  Level FlightAware
03:17PM 40.3550 -116.4520 60° Northeast 517 595 31,000  Level FlightAware
03:20PM 40.6253 -115.7280 64° Northeast 527 606 31,000  Level FlightAware ADS-B
03:20PM 40.6598 -115.6420 62° Northeast 526 605 31,000  Level FlightAware ADS-B
03:21PM 40.6944 -115.5560 62° Northeast 529 609 31,000  Level FlightAware ADS-B
03:21PM 40.7327 -115.4600 62° Northeast 527 606 31,000  Level FlightAware ADS-B
03:22PM 40.7669 -115.3750 62° Northeast 528 608 31,000  Level FlightAware ADS-B
03:23PM 40.8173 -115.2480 62° Northeast 530 610 31,000  Level FlightAware ADS-B
03:23PM 40.8514 -115.1620 62° Northeast 529 609 31,000  Level FlightAware ADS-B
03:23PM 40.8574 -115.1469 62° Northeast 529 609 31,000  Level FlightAware ADS-B
03:24PM 40.9060 -115.0240 62° Northeast 529 609 31,000  Level FlightAware ADS-B
03:24PM 40.9410 -114.9350 62° Northeast 536 617 31,000  Level FlightAware ADS-B
03:25PM 40.9754 -114.8470 63° Northeast 541 623 31,000  Level FlightAware ADS-B
03:25PM 41.0099 -114.7590 63° Northeast 534 615 31,000 60 Level FlightAware ADS-B
03:26PM 41.0438 -114.6720 63° Northeast 533 613 31,100  Climbing FlightAware ADS-B
03:26PM 41.0783 -114.5830 63° Northeast 539 620 31,000 -120 Descending FlightAware ADS-B
03:27PM 41.1153 -114.4880 63° Northeast 536 617 31,000  Level FlightAware ADS-B
03:28PM 41.1500 -114.3980 63° Northeast 536 617 31,000  Level FlightAware ADS-B
03:28PM 41.1997 -114.2690 63° Northeast 538 619 31,000  Level FlightAware ADS-B
03:29PM 41.2337 -114.1800 63° Northeast 535 616 31,000  Level FlightAware ADS-B
03:29PM 41.2678 -114.0910 63° Northeast 537 618 31,000  Level FlightAware ADS-B
03:30PM 41.3019 -114.0020 63° Northeast 537 618 31,000  Level FlightAware ADS-B
03:30PM 41.3355 -113.9130 63° Northeast 537 618 31,000  Level FlightAware ADS-B
03:31PM 41.3518 -113.8640 66° East 542 624 31,000  Level FlightAware ADS-B
03:31PM 41.3612 -113.8300 70° East 544 626 31,000  Level FlightAware ADS-B
03:31PM 41.3692 -113.7950 73° East 548 631 31,000  Level FlightAware ADS-B
03:31PM 41.3789 -113.7322 78° East 551 634 31,000  Level FlightAware ADS-B
03:31PM 41.3843 -113.6920 80° East 551 634 31,000  Level FlightAware ADS-B
03:32PM 41.3916 -113.6315 81° East 551 634 31,000  Level FlightAware ADS-B
03:32PM 41.3967 -113.5890 81° East 552 635 31,000  Level FlightAware ADS-B
03:32PM 41.4046 -113.5218 81° East 552 635 31,000  Level FlightAware ADS-B
03:32PM 41.4087 -113.4880 81° East 552 635 31,000  Level FlightAware ADS-B
03:33PM 41.4169 -113.4193 81° East 552 635 31,000  Level FlightAware ADS-B
03:33PM 41.4265 -113.3400 81° East 552 635 31,000  Level FlightAware ADS-B
03:33PM 41.4311 -113.3027 81° East 552 635 31,000  Level FlightAware ADS-B
03:34PM 41.4399 -113.2310 81° East 551 634 31,000  Level FlightAware ADS-B
03:34PM 41.4430 -113.2060 80° East 551 634 31,000  Level FlightAware ADS-B
03:34PM 41.4533 -113.1230 81° East 551 634 31,000  Level FlightAware ADS-B
03:34PM 41.4575 -113.0896 80° East 551 634 31,000  Level FlightAware ADS-B
03:35PM 41.4741 -112.9560 81° East 552 635 31,000  Level FlightAware ADS-B
03:35PM 41.4837 -112.8778 81° East 551 634 31,000  Level FlightAware ADS-B
03:36PM 41.4973 -112.7670 81° East 550 633 31,000  Level FlightAware ADS-B
03:37PM 41.5105 -112.6580 81° East 549 632 31,000  Level FlightAware ADS-B
03:37PM 41.5107 -112.6567 77° East 549 632 31,000  Level FlightAware ADS-B
03:37PM 41.5237 -112.5490 81° East 549 632 31,000  Level FlightAware ADS-B
03:37PM 41.5243 -112.5439 82° East 549 632 31,000  Level FlightAware ADS-B
03:38PM 41.5367 -112.4370 81° East 548 631 31,000  Level FlightAware ADS-B
03:38PM 41.5385 -112.4205 82° East 548 631 31,000  Level FlightAware ADS-B
03:38PM 41.5496 -112.3153 82° East 548 631 31,000  Level FlightAware ADS-B
03:39PM 41.5561 -112.2520 82° East 548 631 31,000  Level FlightAware ADS-B
03:39PM 41.5624 -112.1903 82° East 548 631 31,000  Level FlightAware ADS-B
03:39PM 41.5680 -112.1350 82° East 548 631 31,000  Level FlightAware ADS-B
03:39PM 41.5737 -112.0803 82° East 548 631 31,000  Level FlightAware ADS-B
03:40PM 41.5797 -112.0210 82° East 549 632 31,000  Level FlightAware ADS-B
03:40PM 41.5899 -111.9200 82° East 548 631 31,000  Level FlightAware ADS-B
03:40PM 41.5909 -111.9103 82° East 547 629 31,000  Level FlightAware ADS-B
03:41PM 41.6013 -111.8090 82° East 550 633 31,000  Level FlightAware ADS-B
03:41PM 41.6130 -111.6920 82° East 555 639 31,000 60 Level FlightAware ADS-B
03:42PM 41.6233 -111.5890 82° East 547 629 31,100  Climbing FlightAware ADS-B
03:42PM 41.6341 -111.4800 82° East 549 632 31,000 -120 Descending FlightAware ADS-B
03:43PM 41.6442 -111.3760 83° East 545 627 31,000  Level FlightAware ADS-B
03:43PM 41.6541 -111.2730 83° East 545 627 31,000 -120 Level FlightAware ADS-B
03:44PM 41.6638 -111.1720 83° East 546 628 30,900  Descending FlightAware ADS-B
03:45PM 41.6762 -111.0410 83° East 543 625 31,000 120 Climbing FlightAware ADS-B
03:45PM 41.6860 -110.9680 80° East 545 627 31,100 60 Climbing FlightAware
03:46PM 41.6970 -110.8660 82° East 545 627 31,100  Level FlightAware
03:46PM 41.7080 -110.7610 82° East 545 627 31,100  Level FlightAware
03:47PM 41.7190 -110.6590 82° East 545 627 31,100  Level FlightAware
03:48PM 41.7300 -110.5530 82° East 545 627 31,100  Level FlightAware
03:48PM 41.7400 -110.4510 82° East 545 627 31,100  Level FlightAware
03:49PM 41.7510 -110.3490 82° East 545 627 31,100  Level FlightAware
03:50PM 41.7620 -110.2460 82° East 545 627 31,100  Level FlightAware
03:50PM 41.7730 -110.1440 82° East 545 627 31,100  Level FlightAware
03:51PM 41.7840 -110.0380 82° East 545 627 31,100  Level FlightAware
03:51PM 41.7940 -109.9390 82° East 545 627 31,100  Level FlightAware
03:52PM 41.8050 -109.8360 82° East 545 627 31,100  Level FlightAware
03:53PM 41.8150 -109.7340 82° East 545 627 31,100  Level FlightAware
03:53PM 41.8260 -109.6310 82° East 545 627 31,100 -2,220 Level FlightAware
03:54PM 41.8342 -109.2039 82° East 546 628 27,600 -2,040 Descending Denver Center
03:55PM 41.8539 -108.9483 84° East 536 617 27,000 -300 Descending Denver Center
03:56PM 41.8678 -108.7594 84° East 530 610 27,000  Level Denver Center
03:57PM 41.8842 -108.5358 84° East 537 618 27,000  Level Denver Center
03:58PM 41.8975 -108.3433 85° East 539 620 27,000  Level Denver Center
03:59PM 41.9131 -108.1203 85° East 536 617 27,000  Level Denver Center
04:00PM 41.9253 -107.9283 85° East 540 621 27,000  Level Denver Center
04:01PM 41.9378 -107.7375 85° East 537 618 27,000  Level Denver Center
04:02PM 41.9525 -107.5150 85° East 536 617 27,000  Level Denver Center
04:03PM 41.9636 -107.3247 85° East 536 617 27,000  Level Denver Center
04:10PM 42.0330 -106.0780 85° East 523 602 27,000  Level FlightAware
04:10PM 42.0380 -105.9760 86° East 523 602 27,000  Level FlightAware
04:11PM 42.0450 -105.8200 86° East 529 609 27,000  Level FlightAware
04:12PM 42.0510 -105.6950 86° East 528 608 27,000  Level FlightAware
04:12PM 42.0570 -105.5750 86° East 531 611 27,000  Level FlightAware
04:13PM 42.0620 -105.4670 86° East 529 609 27,000  Level FlightAware
04:13PM 42.0670 -105.3440 87° East 528 608 27,000  Level FlightAware
04:14PM 42.0710 -105.2400 87° East 532 612 27,000  Level FlightAware
04:14PM 42.0790 -105.1200 85° East 526 605 27,000  Level FlightAware
04:15PM 42.0880 -105.0120 84° East 524 603 27,000 60 Level FlightAware
04:16PM 42.0980 -104.8940 83° East 531 611 27,100  Climbing FlightAware
04:16PM 42.1090 -104.7740 83° East 532 612 27,000 -120 Descending FlightAware
04:17PM 42.1190 -104.6600 83° East 525 604 27,000  Level FlightAware
04:17PM 42.1270 -104.5640 84° East 523 602 27,000  Level FlightAware
04:18PM 42.1380 -104.4340 83° East 524 603 27,000  Level FlightAware
04:19PM 42.1470 -104.3220 84° East 523 602 27,000  Level FlightAware
04:19PM 42.1560 -104.2130 84° East 523 602 27,000  Level FlightAware
04:20PM 42.1650 -104.1020 84° East 528 608 27,000  Level FlightAware
04:20PM 42.1750 -103.9780 84° East 536 617 27,000  Level FlightAware
04:21PM 42.1840 -103.8680 84° East 537 618 27,000  Level FlightAware
04:22PM 42.1930 -103.7510 84° East 537 618 27,000  Level FlightAware
04:22PM 42.2010 -103.6490 84° East 537 618 27,000  Level FlightAware
04:23PM 42.2090 -103.5470 84° East 537 618 27,000  Level FlightAware
04:23PM 42.2170 -103.4390 84° East 537 618 27,000  Level FlightAware
04:24PM 42.2250 -103.3370 84° East 537 618 27,000  Level FlightAware
04:25PM 42.2330 -103.2320 84° East 537 618 27,000 3,120 Level FlightAware
04:25PM 42.2442 -103.0439 84° East 530 610 30,700 3,180 Climbing Denver Center
04:26PM 42.2575 -102.8558 84° East 527 606 32,100 1,620 Climbing Denver Center
04:27PM 42.2739 -102.6375 84° East 528 608 34,100 1,380 Climbing Denver Center
04:28PM 42.2844 -102.4544 85° East 517 595 35,000 420 Climbing Denver Center
04:29PM 42.3000 -102.2386 84° East 519 597 35,000  Level Denver Center
04:30PM 42.3122 -102.0533 85° East 518 596 35,000 240 Level Denver Center
04:31PM 42.3250 -101.8303 85° East 522 601 35,600 960 Climbing Denver Center
04:32PM 42.3364 -101.6478 85° East 511 588 37,000 660 Climbing Denver Center
04:33PM 42.3478 -101.4414 86° East 494 568 37,000  Level Denver Center
04:34PM 42.3581 -101.2628 85° East 497 572 37,000  Level Denver Center
04:35PM 42.3667 -101.0808 86° East 504 580 37,000  Level Denver Center
04:37PM 42.3781 -100.8694 86° East 505 581 37,000  Level Denver Center
04:38PM 42.3883 -100.6850 86° East 510 587 37,000  Level Denver Center
04:39PM 42.3981 -100.4708 86° East 511 588 37,000  Level Denver Center
04:40PM 42.4067 -100.2917 86° East 504 580 37,000  Level Denver Center
04:41PM 42.4167 -100.0817 86° East 501 577 37,000  Level Denver Center
04:42PM 42.4244 -99.9025 87° East 498 573 37,000  Level Denver Center
04:43PM 42.4322 -99.7142 87° East 496 571 37,000  Level Denver Center
04:43PM 42.4372 -99.6033 86° East 495 570 37,000  Level Minneapolis Center
04:44PM 42.4447 -99.4153 87° East 497 572 37,000  Level Minneapolis Center
04:45PM 42.4522 -99.2258 87° East 500 575 37,000  Level Minneapolis Center
04:46PM 42.4586 -99.0408 87° East 496 571 37,000  Level Minneapolis Center
04:47PM 42.4667 -98.8150 87° East 498 573 37,000  Level Minneapolis Center
04:48PM 42.4742 -98.6281 87° East 496 571 37,000  Level Minneapolis Center
04:55PM 42.5240 -97.5210 87° East 37,000  Level FlightAware
04:55PM 42.5290 -97.4040 87° East 482 555 37,000  Level FlightAware
04:56PM 42.5330 -97.2990 87° East 481 554 37,000  Level FlightAware
04:56PM 42.5370 -97.2050 87° East 481 554 37,000  Level FlightAware
04:57PM 42.5410 -97.0830 87° East 480 552 37,000  Level FlightAware
04:57PM 42.5450 -96.9760 87° East 481 554 37,000  Level FlightAware
04:58PM 42.5490 -96.8870 86° East 481 554 37,000  Level FlightAware
04:59PM 42.5520 -96.7840 88° East 482 555 37,000  Level FlightAware
04:59PM 42.5560 -96.6660 87° East 482 555 37,000  Level FlightAware
05:00PM 42.5600 -96.5540 87° East 484 557 37,000  Level FlightAware
05:00PM 42.5630 -96.4560 88° East 484 557 37,000  Level FlightAware
05:01PM 42.5660 -96.3480 88° East 484 557 37,000  Level FlightAware
05:02PM 42.5700 -96.2350 87° East 485 558 37,000  Level FlightAware
05:02PM 42.5730 -96.1440 87° East 485 558 37,000  Level FlightAware
05:03PM 42.5760 -96.0300 88° East 485 558 37,000  Level FlightAware
05:03PM 42.5790 -95.9170 88° East 486 559 37,000  Level FlightAware
05:04PM 42.5810 -95.8190 88° East 485 558 37,000  Level FlightAware
05:04PM 42.5840 -95.7050 88° East 487 560 37,000  Level FlightAware
05:05PM 42.5870 -95.6070 88° East 487 560 37,000  Level FlightAware
05:06PM 42.5890 -95.5030 88° East 488 562 37,000  Level FlightAware
05:06PM 42.5916 -95.4057 88° East 488 562 37,000  Level FlightAware ADS-B
05:07PM 42.5941 -95.2884 88° East 487 560 37,000  Level FlightAware ADS-B
05:07PM 42.5960 -95.1810 89° East 487 560 37,000  Level FlightAware
05:08PM 42.5971 -95.1449 88° East 487 560 37,000  Level FlightAware ADS-B
05:08PM 42.5991 -95.0449 88° East 487 560 37,000  Level FlightAware ADS-B
05:09PM 42.6015 -94.9191 88° East 487 560 37,000  Level FlightAware ADS-B
05:10PM 42.6040 -94.7767 89° East 487 560 37,000  Level FlightAware ADS-B
05:10PM 42.6060 -94.6420 89° East 488 562 37,000  Level FlightAware
05:10PM 42.6065 -94.6187 88° East 488 562 37,000  Level FlightAware ADS-B
05:11PM 42.6079 -94.5283 89° East 488 562 37,000  Level FlightAware ADS-B
05:11PM 42.6100 -94.4170 88° East 488 562 37,000  Level FlightAware
05:12PM 42.6108 -94.3246 89° East 488 562 37,000  Level FlightAware ADS-B
05:13PM 42.6120 -94.1920 89° East 488 562 37,000  Level FlightAware
05:13PM 42.6127 -94.1300 89° East 488 562 37,000  Level FlightAware ADS-B
05:14PM 42.6135 -94.0112 89° East 487 560 37,000  Level FlightAware ADS-B
05:14PM 42.6140 -93.8700 90° East 487 560 37,000  Level FlightAware
05:15PM 42.6149 -93.8001 89° East 486 559 37,000  Level FlightAware ADS-B
05:16PM 42.6160 -93.6670 89° East 486 559 37,000  Level FlightAware
05:16PM 42.6160 -93.5500 90° East 486 559 37,000  Level FlightAware
05:17PM 42.6160 -93.4520 90° East 486 559 37,000  Level FlightAware
05:17PM 42.6170 -93.3380 89° East 486 559 37,000  Level FlightAware
05:18PM 42.6170 -93.2310 90° East 487 560 37,000  Level FlightAware
05:19PM 42.6170 -93.1210 90° East 486 559 37,000  Level FlightAware
05:19PM 42.6170 -93.0370 90° East 486 559 37,000  Level FlightAware
05:20PM 42.6160 -92.9220 91° East 485 558 37,000  Level FlightAware
05:20PM 42.6163 -92.8747 89° East 485 558 37,000  Level FlightAware ADS-B
05:21PM 42.6157 -92.7044 90° East 483 556 37,000  Level FlightAware ADS-B
05:22PM 42.6152 -92.5756 90° East 483 556 37,000  Level FlightAware ADS-B
05:22PM 42.6146 -92.4846 90° East 483 556 37,000  Level FlightAware ADS-B
05:23PM 42.6140 -92.3804 90° East 482 555 37,000  Level FlightAware ADS-B
05:23PM 42.6130 -92.2880 91° East 482 555 37,000  Level FlightAware
05:23PM 42.6131 -92.2628 90° East 482 555 37,000  Level FlightAware ADS-B
05:24PM 42.6115 -92.0783 91° East 482 555 37,000  Level FlightAware ADS-B
05:25PM 42.6105 -91.9734 91° East 482 555 37,000  Level FlightAware ADS-B
05:25PM 42.6097 -91.9065 91° East 482 555 37,000  Level FlightAware ADS-B
05:26PM 42.6085 -91.7931 91° East 482 555 37,000  Level FlightAware ADS-B
05:27PM 42.6070 -91.6791 91° East 482 555 37,000  Level FlightAware ADS-B
05:27PM 42.6053 -91.5489 91° East 483 556 37,000  Level FlightAware ADS-B
05:28PM 42.6035 -91.4342 91° East 483 556 37,000  Level FlightAware ADS-B
05:28PM 42.6020 -91.3280 91° East 483 556 37,000  Level FlightAware
05:29PM 42.6005 -91.2459 91° East 483 556 37,000  Level FlightAware ADS-B
05:29PM 42.5992 -91.1652 91° East 483 556 37,000  Level FlightAware ADS-B
05:30PM 42.5979 -91.0929 91° East 483 556 37,000  Level FlightAware ADS-B
05:30PM 42.5956 -90.9718 91° East 483 556 37,000  Level FlightAware ADS-B
05:31PM 42.5920 -90.7970 92° East 483 556 37,000  Level FlightAware
05:32PM 42.5903 -90.7084 91° East 483 556 37,000  Level FlightAware ADS-B
05:33PM 42.5880 -90.5890 91° East 483 556 37,000  Level FlightAware
05:33PM 42.5868 -90.5514 92° East 483 556 37,000  Level FlightAware ADS-B
05:34PM 42.5820 -90.3700 92° East 483 556 37,000  Level FlightAware
05:34PM 42.5800 -90.2730 92° East 483 556 37,000  Level FlightAware
05:35PM 42.5780 -90.1760 92° East 483 556 37,000  Level FlightAware
05:35PM 42.5750 -90.0600 92° East 483 556 37,000  Level FlightAware
05:36PM 42.5720 -89.9610 92° East 483 556 37,000  Level FlightAware
05:37PM 42.5690 -89.8530 92° East 483 556 37,000  Level FlightAware
05:37PM 42.5650 -89.7400 93° East 483 556 37,000  Level FlightAware
05:38PM 42.5620 -89.6270 92° East 483 556 37,000  Level FlightAware
05:38PM 42.5590 -89.5200 92° East 482 555 37,000  Level FlightAware
05:39PM 42.5550 -89.4200 93° East 482 555 37,000  Level FlightAware
05:40PM 42.5520 -89.3160 92° East 482 555 37,000  Level FlightAware
05:40PM 42.5480 -89.2110 93° East 481 554 37,000  Level FlightAware
05:41PM 42.5440 -89.0980 93° East 482 555 37,000  Level FlightAware
05:41PM 42.5410 -89.0040 92° East 482 555 37,000  Level FlightAware
05:42PM 42.5370 -88.8990 93° East 483 556 37,000  Level FlightAware
05:42PM 42.5330 -88.7930 93° East 483 556 37,000  Level FlightAware
05:43PM 42.5290 -88.6820 93° East 484 557 37,000 120 Level FlightAware
05:44PM 42.5250 -88.5780 93° East 486 559 37,200 540 Climbing FlightAware
05:44PM 42.5200 -88.4660 93° East 487 560 37,700 840 Climbing FlightAware
05:45PM 42.5160 -88.3650 93° East 488 562 38,200 900 Climbing FlightAware
05:45PM 42.5110 -88.2550 93° East 488 562 38,800 660 Climbing FlightAware
05:46PM 42.5070 -88.1490 93° East 486 559 39,000 120 Climbing FlightAware
05:47PM 42.5020 -88.0440 94° East 482 555 39,000  Level FlightAware
05:47PM 42.5000 -87.9450 92° East 481 554 39,000  Level FlightAware
05:48PM 42.5000 -87.8430 90° East 481 554 39,000  Level FlightAware
05:48PM 42.5000 -87.7380 90° East 482 555 39,000  Level FlightAware
05:49PM 42.4990 -87.6220 91° East 483 556 39,000  Level FlightAware
05:50PM 42.4990 -87.5150 90° East 483 556 39,000  Level FlightAware
05:50PM 42.4990 -87.3940 90° East 484 557 39,000  Level FlightAware
05:51PM 42.4980 -87.2850 91° East 484 557 39,000  Level FlightAware
05:51PM 42.4970 -87.1840 91° East 483 556 39,000  Level FlightAware
05:52PM 42.4970 -87.0750 90° East 483 556 39,000  Level FlightAware
05:53PM 42.4960 -86.9650 91° East 482 555 39,000  Level FlightAware
05:53PM 42.4950 -86.8540 91° East 481 554 39,000  Level FlightAware
05:54PM 42.4940 -86.7570 91° East 481 554 39,000  Level FlightAware
05:54PM 42.4920 -86.6470 91° East 481 554 39,000  Level FlightAware
05:55PM 42.4910 -86.5430 91° East 481 554 39,000  Level FlightAware
05:55PM 42.4900 -86.4480 91° East 482 555 39,000  Level FlightAware
05:56PM 42.4880 -86.3380 91° East 481 554 39,000  Level FlightAware
05:57PM 42.4870 -86.2320 91° East 480 552 39,000  Level FlightAware
05:57PM 42.4850 -86.1320 92° East 479 551 39,000  Level FlightAware
05:58PM 42.4840 -86.0230 91° East 477 549 39,000  Level FlightAware
05:58PM 42.4820 -85.9110 91° East 476 548 39,000  Level FlightAware
05:59PM 42.4800 -85.8150 92° East 475 547 39,000  Level FlightAware
06:00PM 42.4780 -85.6970 91° East 475 547 39,000  Level FlightAware
06:00PM 42.4750 -85.5890 92° East 476 548 39,000  Level FlightAware
06:01PM 42.4730 -85.4800 91° East 476 548 39,000  Level FlightAware
06:01PM 42.4710 -85.3760 91° East 477 549 39,000  Level FlightAware
06:02PM 42.4680 -85.2650 92° East 477 549 39,000  Level FlightAware
06:03PM 42.4660 -85.1650 92° East 478 550 39,000  Level FlightAware
06:03PM 42.4630 -85.0660 92° East 478 550 39,000  Level FlightAware
06:04PM 42.4610 -84.9700 92° East 478 550 39,000  Level FlightAware
06:04PM 42.4580 -84.8550 92° East 478 550 39,000  Level FlightAware
06:05PM 42.4550 -84.7560 92° East 478 550 39,000  Level FlightAware
06:05PM 42.4520 -84.6500 92° East 479 551 39,000  Level FlightAware
06:06PM 42.4490 -84.5480 92° East 479 551 39,000  Level FlightAware
06:07PM 42.4460 -84.4410 92° East 479 551 39,000  Level FlightAware
06:07PM 42.4430 -84.3380 92° East 479 551 39,000  Level FlightAware
06:08PM 42.4390 -84.2180 93° East 480 552 39,000  Level FlightAware
06:08PM 42.4360 -84.1260 92° East 481 554 39,000  Level FlightAware
06:09PM 42.4320 -84.0190 93° East 482 555 39,000  Level FlightAware
06:10PM 42.4280 -83.9160 93° East 483 556 39,000  Level FlightAware
06:10PM 42.4240 -83.8010 93° East 484 557 39,000  Level FlightAware
06:10PM 42.4220 -83.7520 93° East 485 558 39,000  Level FlightAware
06:11PM 42.4170 -83.6120 93° East 486 559 39,000  Level FlightAware
06:12PM 42.4130 -83.5050 93° East 486 559 39,000  Level FlightAware
06:12PM 42.4090 -83.4010 93° East 487 560 39,000  Level FlightAware
06:13PM 42.4040 -83.2860 93° East 487 560 39,000  Level FlightAware
06:14PM 42.4000 -83.1840 93° East 487 560 39,000  Level FlightAware
06:14PM 42.3950 -83.0740 93° East 489 563 39,000  Level FlightAware
06:15PM 42.3910 -82.9760 93° East 490 564 39,000  Level FlightAware
06:15PM 42.3860 -82.8580 93° East 491 565 39,000  Level FlightAware
06:16PM 42.3820 -82.7680 93° East 491 565 39,000  Level FlightAware
06:17PM 42.3770 -82.6440 93° East 491 565 39,000  Level FlightAware
06:17PM 42.3720 -82.5330 93° East 490 564 39,000  Level FlightAware
06:18PM 42.3690 -82.4340 92° East 490 564 39,000  Level FlightAware
06:18PM 42.3650 -82.3320 93° East 491 565 39,000  Level FlightAware
06:19PM 42.3600 -82.2300 94° East 491 565 39,000  Level FlightAware
06:19PM 42.3560 -82.1170 93° East 492 566 39,000  Level FlightAware
06:20PM 42.3500 -81.9980 94° East 493 567 39,000  Level FlightAware
06:21PM 42.3460 -81.8890 93° East 494 568 39,000  Level FlightAware
06:21PM 42.3410 -81.7900 94° East 494 568 39,000  Level FlightAware
06:22PM 42.3360 -81.6760 93° East 495 570 39,000  Level FlightAware
06:22PM 42.3310 -81.5790 94° East 496 571 39,000  Level FlightAware
06:23PM 42.3260 -81.4630 93° East 496 571 39,000  Level FlightAware
06:24PM 42.3210 -81.3570 94° East 495 570 39,000  Level FlightAware
06:24PM 42.3150 -81.2440 94° East 495 570 39,000  Level FlightAware
06:25PM 42.3100 -81.1420 94° East 494 568 39,000  Level FlightAware
06:25PM 42.3040 -81.0310 94° East 493 567 39,000  Level FlightAware
06:26PM 42.2990 -80.9300 94° East 491 565 39,000  Level FlightAware
06:26PM 42.2930 -80.8240 94° East 490 564 39,000  Level FlightAware
06:27PM 42.2870 -80.7110 94° East 487 560 39,000  Level FlightAware
06:28PM 42.2810 -80.6030 94° East 486 559 39,000  Level FlightAware
06:28PM 42.2760 -80.5040 94° East 486 559 39,000  Level FlightAware
06:29PM 42.2700 -80.3980 94° East 485 558 39,000  Level FlightAware
06:29PM 42.2640 -80.2960 95° East 485 558 39,000  Level FlightAware
06:30PM 42.2570 -80.1910 95° East 485 558 39,000  Level FlightAware
06:31PM 42.2510 -80.0790 94° East 484 557 39,000  Level FlightAware
06:31PM 42.2440 -79.9760 95° East 484 557 39,000  Level FlightAware
06:32PM 42.2380 -79.8660 94° East 484 557 39,000  Level FlightAware
06:32PM 42.2310 -79.7660 95° East 484 557 39,000  Level FlightAware
06:33PM 42.2250 -79.6680 95° East 484 557 39,000  Level FlightAware
06:33PM 42.2180 -79.5560 95° East 482 555 39,000  Level FlightAware
06:34PM 42.2100 -79.4450 96° East 480 552 39,000  Level FlightAware
06:35PM 42.2040 -79.3540 95° East 477 549 39,000  Level FlightAware
06:35PM 42.1970 -79.2480 95° East 475 547 39,000  Level FlightAware
06:36PM 42.1880 -79.1410 96° East 474 545 39,000  Level FlightAware
06:36PM 42.1720 -79.0530 104° East 471 542 39,000  Level FlightAware
06:37PM 42.1480 -78.9570 109° East 469 540 39,000  Level FlightAware
06:38PM 42.1200 -78.8460 109° East 468 539 39,000  Level FlightAware
06:38PM 42.0960 -78.7530 109° East 467 537 39,000  Level FlightAware
06:39PM 42.0730 -78.6600 108° East 466 536 39,000  Level FlightAware
06:39PM 42.0480 -78.5610 109° East 465 535 39,000  Level FlightAware
06:40PM 42.0260 -78.4750 109° East 464 534 39,000  Level FlightAware
06:40PM 41.9980 -78.3670 109° East 465 535 39,000  Level FlightAware
06:41PM 41.9690 -78.2530 109° East 464 534 39,000  Level FlightAware
06:42PM 41.9440 -78.1550 109° East 464 534 39,000  Level FlightAware
06:42PM 41.9210 -78.0670 109° East 465 535 39,000  Level FlightAware
06:43PM 41.8950 -77.9680 109° East 466 536 39,000  Level FlightAware
06:43PM 41.8690 -77.8660 109° East 467 537 39,000  Level FlightAware
06:44PM 41.8470 -77.7840 110° East 468 539 39,000  Level FlightAware
06:45PM 41.8200 -77.6820 110° East 469 540 39,000  Level FlightAware
06:45PM 41.7950 -77.5860 109° East 470 541 39,000  Level FlightAware
06:46PM 41.7690 -77.4870 109° East 471 542 39,000  Level FlightAware
06:46PM 41.7470 -77.4060 110° East 472 543 39,000  Level FlightAware
06:47PM 41.7170 -77.2930 110° East 474 545 39,000  Level FlightAware
06:48PM 41.6910 -77.1950 110° East 476 548 39,000  Level FlightAware
06:48PM 41.6690 -77.1150 110° East 476 548 39,000  Level FlightAware
06:49PM 41.6400 -77.0070 110° East 475 547 39,000  Level FlightAware
06:49PM 41.6130 -76.9090 110° East 475 547 39,000  Level FlightAware
06:50PM 41.5890 -76.8210 110° East 473 544 39,000  Level FlightAware
06:50PM 41.5630 -76.7250 110° East 472 543 39,000  Level FlightAware
06:51PM 41.5330 -76.6170 110° East 472 543 39,000  Level FlightAware
06:52PM 41.5100 -76.5340 110° East 471 542 39,000  Level FlightAware
06:52PM 41.4830 -76.4350 110° East 470 541 39,000  Level FlightAware
06:53PM 41.4590 -76.3500 111° Southeast 469 540 39,000  Level FlightAware
06:53PM 41.4330 -76.2570 110° East 468 539 39,000 -780 Level FlightAware
06:54PM 41.4030 -76.1510 111° Southeast 467 537 38,100 -2,100 Descending FlightAware
06:55PM 41.3760 -76.0530 110° East 477 549 36,400 -2,880 Descending FlightAware
06:55PM 41.3490 -75.9580 111° Southeast 484 557 34,700 -3,120 Descending FlightAware
06:56PM 41.3240 -75.8680 110° East 489 563 33,000 -3,120 Descending FlightAware
06:56PM 41.2950 -75.7660 111° Southeast 491 565 31,200 -3,000 Descending FlightAware
06:57PM 41.2720 -75.6890 112° Southeast 490 564 29,700 -3,540 Descending FlightAware
06:57PM 41.2360 -75.5780 113° Southeast 489 563 27,300 -3,240 Descending FlightAware
06:58PM 41.2020 -75.4770 114° Southeast 477 549 25,600 -2,640 Descending FlightAware
06:59PM 41.1730 -75.3890 114° Southeast 464 534 24,100 -2,040 Descending FlightAware
06:59PM 41.1360 -75.2810 114° Southeast 457 526 23,000 -840 Descending FlightAware
07:00PM 41.1040 -75.1850 114° Southeast 451 519 23,000  Level FlightAware
07:00PM 41.0730 -75.0950 115° Southeast 456 525 23,000  Level FlightAware
07:01PM 41.0480 -75.0230 115° Southeast 451 519 23,000  Level FlightAware
07:02PM 41.0130 -74.9200 114° Southeast 449 517 23,000  Level FlightAware
07:02PM 40.9910 -74.8240 107° East 452 520 23,000  Level FlightAware
07:03PM 40.9810 -74.7360 99° East 452 520 23,000 -480 Level FlightAware
07:03PM 40.9710 -74.6400 98° East 449 517 22,500 -1,560 Descending FlightAware
07:04PM 40.9651 -74.5866 98° East 450 518 21,600 -2,100 Descending FlightAware ADS-B
07:05PM 40.9510 -74.4560 98° East 420 483 20,100 -1,740 Descending FlightAware
07:05PM 40.9410 -74.3620 98° East 414 476 19,100 -960 Descending FlightAware
07:06PM 40.9310 -74.2780 99° East 376 433 19,000 -120 Descending FlightAware
07:06PM 40.9220 -74.2010 99° East 340 391 19,000  Level FlightAware
07:07PM 40.9090 -74.1270 103° East 335 386 19,000 -300 Level FlightAware
07:07PM 40.8850 -74.0720 120° Southeast 337 388 18,700 -1,020 Descending FlightAware
07:08PM 40.8641 -74.0302 123° Southeast 336 387 18,100 -1,560 Descending FlightAware ADS-B
07:08PM 40.8349 -73.9721 124° Southeast 329 379 17,200 -1,740 Descending FlightAware ADS-B
07:09PM 40.7960 -73.8930 123° Southeast 310 357 15,700 -2,040 Descending FlightAware
07:10PM 40.7700 -73.8440 125° Southeast 310 357 14,500 -2,220 Descending FlightAware
07:10PM 40.7574 -73.8268 134° Southeast 306 352 14,100 -2,400 Descending FlightAware ADS-B (KSNC)
07:11PM 40.6988 -73.7556 137° Southeast 297 342 11,800 -2,400 Descending FlightAware ADS-B (KSNC)
07:12PM 40.6630 -73.7130 138° Southeast 287 330 10,400 -2,340 Descending FlightAware
07:12PM 40.6430 -73.6950 146° Southeast 284 327 9,700 -2,340 Descending FlightAware
07:12PM 40.6210 -73.6870 165° South 282 325 9,000 -1,980 Descending FlightAware
07:13PM 40.5940 -73.6790 167° South 283 326 8,400 -1,440 Descending FlightAware
07:13PM 40.5700 -73.6720 168° South 279 321 8,000 -840 Descending FlightAware
07:13PM 40.5390 -73.6630 168° South 277 319 7,800 -300 Descending FlightAware
07:14PM 40.5130 -73.6560 168° South 277 319 7,800  Level FlightAware
07:14PM 40.4970 -73.6510 167° South 277 319 7,800  Level FlightAware
07:14PM 40.4750 -73.6450 168° South 279 321 7,800 -600 Level FlightAware
07:14PM 40.4470 -73.6530 192° South 274 315 7,400 -1,620 Descending FlightAware
07:15PM 40.4260 -73.6670 207° Southwest 273 314 6,700 -2,220 Descending FlightAware
07:15PM 40.4000 -73.6850 208° Southwest 270 311 5,800 -2,280 Descending FlightAware
07:16PM 40.3660 -73.7090 208° Southwest 266 306 4,700 -2,220 Descending FlightAware
07:16PM 40.3580 -73.7190 224° Southwest 264 304 4,400 -2,040 Descending FlightAware
07:16PM 40.3530 -73.7300 239° Southwest 260 299 4,100 -2,040 Descending FlightAware
07:16PM 40.3460 -73.7610 254° West 258 297 3,400 -1,500 Descending FlightAware
07:17PM 40.3410 -73.7860 255° West 251 289 3,100 -840 Descending FlightAware
07:17PM 40.3340 -73.8140 252° West 239 275 2,900 -480 Descending FlightAware
07:17PM 40.3240 -73.8430 246° West 230 265 2,800 -180 Descending FlightAware
07:18PM 40.3130 -73.8770 247° West 209 241 2,800  Level FlightAware
07:18PM 40.3070 -73.8940 245° Southwest 208 239 2,800  Level FlightAware
07:18PM 40.2980 -73.9200 246° West 209 241 2,800  Level FlightAware
07:19PM 40.2940 -73.9320 246° West 208 239 2,800  Level FlightAware
07:19PM 40.2930 -73.9410 262° West 205 236 2,800  Level FlightAware
07:19PM 40.3020 -73.9620 299° West 196 226 2,800  Level FlightAware
07:19PM 40.3140 -73.9700 333° Northwest 191 220 2,800  Level FlightAware
07:20PM 40.3260 -73.9740 346° North 187 215 2,800  Level FlightAware
07:20PM 40.3480 -73.9820 345° North 183 211 2,800  Level FlightAware
07:20PM 40.3640 -73.9880 344° North 184 212 2,800  Level FlightAware
07:21PM 40.3840 -73.9950 345° North 184 212 2,800  Level FlightAware
07:21PM 40.4000 -74.0010 344° North 184 212 2,800  Level FlightAware
07:21PM 40.4160 -74.0070 344° North 184 212 2,800  Level FlightAware
07:22PM 40.4300 -74.0100 351° North 182 209 2,800  Level FlightAware
07:22PM 40.4470 -74.0050 13° North 173 199 2,800  Level FlightAware
07:22PM 40.4630 -74.0000 13° North 177 204 2,800  Level FlightAware
07:23PM 40.4730 -73.9970 13° North 178 205 2,800  Level FlightAware
07:23PM 40.4930 -73.9870 21° North 177 204 2,800  Level FlightAware
07:23PM 40.5100 -73.9760 26° Northeast 177 204 2,800  Level FlightAware
07:24PM 40.5270 -73.9650 26° Northeast 178 205 2,800 -360 Level FlightAware
07:24PM 40.5390 -73.9550 32° Northeast 177 204 2,600 -660 Descending FlightAware
07:24PM 40.5550 -73.9420 32° Northeast 169 194 2,400 -720 Descending FlightAware
07:25PM 40.5690 -73.9300 33° Northeast 177 204 2,100 -900 Descending FlightAware
07:25PM 40.5830 -73.9180 33° Northeast 178 205 1,800 -720 Descending FlightAware
07:26PM 40.6040 -73.9010 32° Northeast 179 206 1,500 -720 Descending FlightAware
07:26PM 40.6190 -73.8890 31° Northeast 168 193 1,200 -780 Descending FlightAware
07:26PM 40.6320 -73.8800 28° Northeast 145 167 1,000 -720 Descending FlightAware
07:27PM 40.6410 -73.8730 31° Northeast 140 161 800 -720 Descending FlightAware
07:27PM 40.6520 -73.8640 32° Northeast 138 159 600 -660 Descending FlightAware
07:27PM 40.6560 -73.8600 37° Northeast 133 153 500 -300 Descending FlightAware
07:27PM 40.6620 -73.8540 37° Northeast 137 158 500  Level FlightAware
07:27PM 40.6650 -73.8480 57° Northeast 136 157 500  Level FlightAware
07:28PM 40.6710 -73.8270 69° East 135 155 500 -300 Level FlightAware
07:28PM 40.6670 -73.8120 109° East 133 153 300 -720 Descending FlightAware
07:28PM 40.6650 -73.8050 111° Southeast 132 152 200 -780 Descending FlightAware
07:29PM 40.6590 -73.7920 121° Southeast 130 150 -600 Descending FlightAware
07:29PM 40.6530 -73.7790 121° Southeast 120 138  Level FlightAware